createdAt,value
2017-04-14T00:10:03.544Z,1005.7
2017-04-14T00:20:15.026Z,1005.6
2017-04-14T00:30:26.527Z,1005.6
2017-04-14T00:40:38.027Z,1005.7
2017-04-14T00:50:49.529Z,1005.6
2017-04-14T01:01:01.017Z,1005.6
2017-04-14T01:11:12.552Z,1005.6
2017-04-14T01:21:24.146Z,1005.5
2017-04-14T01:31:35.718Z,1005.5
2017-04-14T01:41:47.361Z,1005.5
2017-04-14T01:51:59.007Z,1005.5
2017-04-14T02:02:10.682Z,1005.4
2017-04-14T02:12:22.345Z,1005.5
2017-04-14T02:22:33.987Z,1005.4
2017-04-14T02:32:45.704Z,1005.4
2017-04-14T02:42:57.445Z,1005.4
2017-04-14T02:53:09.225Z,1005.5
2017-04-14T03:03:21.040Z,1005.6
2017-04-14T03:13:32.859Z,1005.6
2017-04-14T03:23:44.713Z,1005.5
2017-04-14T03:33:56.672Z,1005.5
2017-04-14T03:44:08.649Z,1005.4
2017-04-14T03:54:20.612Z,1005.4
2017-04-14T04:04:32.553Z,1005.4
2017-04-14T04:14:44.492Z,1005.6
2017-04-14T04:24:56.409Z,1005.5
2017-04-14T04:35:08.316Z,1005.6
2017-04-14T04:45:20.272Z,1005.7
2017-04-14T04:55:32.149Z,1005.7
2017-04-14T05:05:43.968Z,1005.6
2017-04-14T05:15:55.661Z,1005.7
2017-04-14T05:26:07.261Z,1005.7
2017-04-14T05:36:18.728Z,1005.7
2017-04-14T05:46:29.941Z,1005.8
2017-04-14T05:56:40.998Z,1005.8
2017-04-14T06:06:51.921Z,1005.9
2017-04-14T06:17:02.730Z,1005.9
2017-04-14T06:27:13.348Z,1006
2017-04-14T06:37:23.795Z,1006
2017-04-14T06:47:34.068Z,1006
2017-04-14T06:57:44.177Z,1006
2017-04-14T07:07:54.045Z,1005.9
2017-04-14T07:18:04.046Z,1006
2017-04-14T07:28:14.397Z,1005.8
2017-04-14T07:38:24.900Z,1005.8
2017-04-14T07:48:35.402Z,1005.9
2017-04-14T07:58:45.924Z,1006
2017-04-14T08:08:56.471Z,1006
2017-04-14T08:19:07.022Z,1006
2017-04-14T08:29:17.631Z,1006.1
2017-04-14T08:39:28.057Z,1006.2
2017-04-14T08:49:38.580Z,1006.2
2017-04-14T08:59:49.045Z,1006.1
2017-04-14T09:09:59.489Z,1006.2
2017-04-14T09:20:09.886Z,1006.2
2017-04-14T09:30:20.274Z,1006.2
2017-04-14T09:40:30.746Z,1006.2
2017-04-14T09:50:41.227Z,1006.2
2017-04-14T10:00:51.707Z,1006.3
2017-04-14T10:11:02.136Z,1006.4
2017-04-14T10:21:12.621Z,1006.4
2017-04-14T10:31:23.016Z,1006.3
2017-04-14T10:41:33.409Z,1006.2
2017-04-14T10:51:43.694Z,1006.3
2017-04-14T11:01:53.943Z,1006.4
2017-04-14T11:12:04.157Z,1006.3
2017-04-14T11:22:14.338Z,1006.2
2017-04-14T11:32:24.422Z,1006.2
2017-04-14T11:42:34.402Z,1006.3
2017-04-14T11:52:44.368Z,1006.2
2017-04-14T12:02:54.297Z,1006.1
2017-04-14T12:13:04.154Z,1006.2
2017-04-14T12:23:13.926Z,1006.1
2017-04-14T12:33:23.638Z,1006.1
2017-04-14T12:43:33.407Z,1006
2017-04-14T12:53:43.371Z,1006.1
2017-04-14T13:03:53.390Z,1006
2017-04-14T13:14:03.476Z,1005.9
2017-04-14T13:24:13.582Z,1005.7
2017-04-14T13:34:23.741Z,1005.8
2017-04-14T13:44:33.859Z,1005.6
2017-04-14T13:54:44.069Z,1005.5
2017-04-14T14:04:54.215Z,1005.6
2017-04-14T14:15:04.354Z,1005.3
2017-04-14T14:25:14.503Z,1005.4
2017-04-14T14:35:24.656Z,1005.5
2017-04-14T14:45:34.753Z,1005.5
2017-04-14T14:55:44.887Z,1005.3
2017-04-14T15:05:55.114Z,1005.4
2017-04-14T15:16:05.429Z,1005.4
2017-04-14T15:26:15.845Z,1005.4
2017-04-14T15:36:26.317Z,1005.3
2017-04-14T15:46:36.668Z,1005.4
2017-04-14T15:56:47.045Z,1005.3
2017-04-14T16:06:57.501Z,1005.4
2017-04-14T16:17:07.928Z,1005.4
2017-04-14T16:27:18.345Z,1005.3
2017-04-14T16:37:28.792Z,1005.4
2017-04-14T16:47:39.303Z,1005.2
2017-04-14T16:57:49.863Z,1005.1
2017-04-14T17:08:00.414Z,1005.1
2017-04-14T17:18:10.970Z,1005
2017-04-14T17:28:21.505Z,1005
2017-04-14T17:38:32.090Z,1004.9
2017-04-14T17:48:42.700Z,1004.9
2017-04-14T17:58:53.377Z,1004.9
2017-04-14T18:09:04.101Z,1004.8
2017-04-14T18:19:14.768Z,1005
2017-04-14T18:29:25.470Z,1004.9
2017-04-14T18:39:36.242Z,1005.1
2017-04-14T18:49:47.071Z,1005.1
2017-04-14T18:59:57.990Z,1005.1
2017-04-14T19:10:08.802Z,1005.1
2017-04-14T19:20:19.630Z,1005.2
2017-04-14T19:30:30.494Z,1005.2
2017-04-14T19:40:41.370Z,1005.1
2017-04-14T19:50:52.244Z,1005
2017-04-14T20:01:03.133Z,1005
2017-04-14T20:11:13.992Z,1005
2017-04-14T20:21:24.899Z,1004.6
2017-04-14T20:31:35.891Z,1004.8
2017-04-14T20:41:46.853Z,1004.9
2017-04-14T20:51:57.820Z,1004.9
2017-04-14T21:02:08.807Z,1004.6
2017-04-14T21:12:19.797Z,1004.7
2017-04-14T21:22:30.796Z,1004.6
2017-04-14T21:32:41.888Z,1004.5
2017-04-14T21:42:52.962Z,1004.6
2017-04-14T21:53:04.040Z,1004.3
2017-04-14T22:03:15.118Z,1004.4
2017-04-14T22:13:26.302Z,1004.3
2017-04-14T22:23:37.514Z,1004.1
2017-04-14T22:33:48.675Z,1004
2017-04-14T22:43:59.798Z,1004.1
2017-04-14T22:54:10.899Z,1004
2017-04-14T23:04:21.975Z,1003.9
2017-04-14T23:14:33.097Z,1003.8
2017-04-14T23:24:44.192Z,1003.8
2017-04-14T23:34:55.251Z,1003.7
2017-04-14T23:45:06.330Z,1003.5
2017-04-14T23:55:17.426Z,1003.4
